Time;durP1;ratioP1;P1;durP2;ratioP2;P2;SDS_P1;SDS_P2;PMS_P1;PMS_P2;Temp;Humidity;BMP_temperature;BMP_pressure;BME280_temperature;BME280_humidity;BME280_pressure;Samples;Min_cycle;Max_cycle;Signal;HPM_P1;HPM_P2
2022/08/17 00:00:05;;;;;;;;;;;19.00;99.90;;;;;;5027782;28;19932;-89
2022/08/17 00:02:54;;;;;;;;;;;19.00;99.90;;;;;;5029674;28;19925;-86
2022/08/17 00:05:22;;;;;;;;;;;19.00;99.90;;;;;;5028405;28;20395;-85
2022/08/17 00:07:49;;;;;;;;;;;19.00;99.90;;;;;;5028731;28;19925;-90
2022/08/17 00:10:17;;;;;;;;;;;19.00;99.90;;;;;;5028918;28;20455;-88
2022/08/17 00:12:44;;;;;;;;;;;19.00;99.90;;;;;;5027944;28;19933;-89
2022/08/17 00:15:12;;;;;;;;;;;19.10;99.90;;;;;;5019780;28;20370;-87
2022/08/17 00:17:43;;;;;;;;;;;19.10;99.90;;;;;;5044768;28;19925;-89
2022/08/17 00:20:11;;;;;;;;;;;19.10;99.90;;;;;;5025907;28;19929;-89
2022/08/17 00:22:38;;;;;;;;;;;19.10;99.90;;;;;;5027364;28;19925;-88
2022/08/17 00:25:08;;;;;;;;;;;19.10;99.90;;;;;;5020319;28;19926;-89
2022/08/17 00:27:35;;;;;;;;;;;19.10;99.90;;;;;;5021435;28;20420;-90
2022/08/17 00:30:04;;;;;;;;;;;19.20;99.90;;;;;;5027913;28;19929;-89
2022/08/17 00:32:50;;;;;;;;;;;19.30;99.90;;;;;;5029293;28;19936;-87
2022/08/17 00:35:38;;;;;;;;;;;19.40;99.90;;;;;;5025535;28;20284;-89
2022/08/17 00:38:08;;;;;;;;;;;19.30;99.90;;;;;;5031762;28;20694;-87
2022/08/17 00:40:42;;;;;;;;;;;19.30;99.90;;;;;;5018172;28;19929;-88
2022/08/17 00:43:18;;;;;;;;;;;19.40;99.90;;;;;;5033923;28;19935;-84
2022/08/17 00:45:46;;;;;;;;;;;19.40;99.90;;;;;;5037700;28;20272;-84
2022/08/17 00:48:14;;;;;;;;;;;19.40;99.90;;;;;;5049488;28;19925;-83
2022/08/17 00:51:04;;;;;;;;;;;19.40;99.90;;;;;;5033214;28;19932;-88
2022/08/17 00:53:32;;;;;;;;;;;19.40;99.90;;;;;;5041219;28;19929;-87
2022/08/17 00:56:01;;;;;;;;;;;19.40;99.90;;;;;;5050730;28;19921;-85
2022/08/17 00:58:29;;;;;;;;;;;19.40;99.90;;;;;;5035665;28;19929;-89
2022/08/17 01:01:04;;;;;;;;;;;19.40;99.90;;;;;;5016255;28;19929;-89
2022/08/17 01:03:32;;;;;;;;;;;19.40;99.90;;;;;;5003150;28;20327;-89
2022/08/17 01:06:01;;;;;;;;;;;19.30;99.90;;;;;;5056058;28;19936;-87
2022/08/17 01:08:29;;;;;;;;;;;19.30;99.90;;;;;;5051870;28;19955;-87
2022/08/17 01:11:00;;;;;;;;;;;19.30;99.90;;;;;;5032796;28;19925;-87
2022/08/17 01:13:41;;;;;;;;;;;19.30;99.90;;;;;;5044708;28;19932;-87
2022/08/17 01:16:09;;;;;;;;;;;19.30;99.90;;;;;;5033360;28;19948;-88
2022/08/17 01:18:37;;;;;;;;;;;19.30;99.90;;;;;;5034157;28;19935;-85
2022/08/17 01:21:12;;;;;;;;;;;19.20;99.90;;;;;;5051580;28;19929;-86
2022/08/17 01:23:41;;;;;;;;;;;19.10;99.90;;;;;;5051166;28;19932;-89
2022/08/17 01:26:08;;;;;;;;;;;19.10;99.90;;;;;;5050842;28;19928;-86
2022/08/17 01:28:36;;;;;;;;;;;19.00;99.90;;;;;;5051440;28;19951;-89
2022/08/17 01:31:23;;;;;;;;;;;19.00;99.90;;;;;;5049406;28;19925;-88
2022/08/17 01:33:51;;;;;;;;;;;18.90;99.90;;;;;;5050659;28;19932;-89
2022/08/17 01:36:19;;;;;;;;;;;18.90;99.90;;;;;;5055709;28;19933;-87
2022/08/17 01:38:47;;;;;;;;;;;18.80;99.90;;;;;;5032494;28;19925;-88
2022/08/17 01:41:15;;;;;;;;;;;18.80;99.90;;;;;;5050801;28;19924;-88
2022/08/17 01:43:44;;;;;;;;;;;18.80;99.90;;;;;;5032999;28;19940;-89
2022/08/17 01:46:14;;;;;;;;;;;18.80;99.90;;;;;;5051357;28;19925;-89
2022/08/17 01:48:42;;;;;;;;;;;18.70;99.90;;;;;;5053622;28;19929;-87
2022/08/17 01:51:09;;;;;;;;;;;18.70;99.90;;;;;;5054868;28;19932;-89
2022/08/17 01:53:38;;;;;;;;;;;18.70;99.90;;;;;;5055426;28;19932;-88
2022/08/17 01:56:11;;;;;;;;;;;18.70;99.90;;;;;;5042588;28;19925;-87
2022/08/17 01:58:39;;;;;;;;;;;18.60;99.90;;;;;;5043930;28;19925;-86
2022/08/17 02:01:08;;;;;;;;;;;18.60;99.90;;;;;;5021042;28;19929;-88
2022/08/17 02:03:36;;;;;;;;;;;18.50;99.90;;;;;;5045620;28;19935;-86
2022/08/17 02:06:04;;;;;;;;;;;18.50;99.90;;;;;;5017667;28;19929;-88
2022/08/17 02:08:52;;;;;;;;;;;18.50;99.90;;;;;;5059009;28;19925;-87
2022/08/17 02:11:32;;;;;;;;;;;18.50;99.90;;;;;;5035356;28;19955;-89
2022/08/17 02:13:59;;;;;;;;;;;18.40;99.90;;;;;;5053413;28;19932;-87
2022/08/17 02:16:31;;;;;;;;;;;18.40;99.90;;;;;;5052580;28;19925;-88
2022/08/17 02:19:09;;;;;;;;;;;18.30;99.90;;;;;;5062362;28;19925;-88
2022/08/17 02:21:37;;;;;;;;;;;18.40;99.90;;;;;;5045624;28;20450;-85
2022/08/17 02:24:06;;;;;;;;;;;18.40;99.90;;;;;;5055493;28;19925;-89
2022/08/17 02:26:33;;;;;;;;;;;18.30;99.90;;;;;;5054151;28;19931;-85
2022/08/17 02:29:02;;;;;;;;;;;18.30;99.90;;;;;;5036692;28;19925;-86
2022/08/17 02:31:30;;;;;;;;;;;18.20;99.90;;;;;;5035812;28;19925;-87
2022/08/17 02:33:57;;;;;;;;;;;18.20;99.90;;;;;;5035210;28;20307;-87
2022/08/17 02:36:32;;;;;;;;;;;18.20;99.90;;;;;;5051370;28;19925;-85
2022/08/17 02:39:03;;;;;;;;;;;18.20;99.90;;;;;;5032653;28;19935;-84
2022/08/17 02:41:31;;;;;;;;;;;18.10;99.90;;;;;;5032225;28;20304;-84
2022/08/17 02:43:58;;;;;;;;;;;18.20;99.90;;;;;;5049906;28;19949;-84
2022/08/17 02:46:25;;;;;;;;;;;18.20;99.90;;;;;;5032418;28;19932;-82
2022/08/17 02:48:53;;;;;;;;;;;18.20;99.90;;;;;;5006600;28;19936;-83
2022/08/17 02:51:20;;;;;;;;;;;18.20;99.90;;;;;;5012177;28;19964;-86
2022/08/17 02:53:48;;;;;;;;;;;18.20;99.90;;;;;;5049206;28;19936;-87
2022/08/17 02:56:15;;;;;;;;;;;18.20;99.90;;;;;;5050084;28;20292;-88
2022/08/17 02:58:42;;;;;;;;;;;18.30;99.90;;;;;;5049676;28;19933;-87
2022/08/17 03:01:11;;;;;;;;;;;18.30;99.90;;;;;;5032790;28;19925;-87
2022/08/17 03:03:39;;;;;;;;;;;18.30;99.90;;;;;;5051190;28;19931;-87
2022/08/17 03:06:06;;;;;;;;;;;18.30;99.90;;;;;;5032673;28;19925;-86
2022/08/17 03:08:35;;;;;;;;;;;18.30;99.90;;;;;;5032261;28;20273;-86
2022/08/17 03:11:02;;;;;;;;;;;18.30;99.90;;;;;;5015461;28;20136;-86
2022/08/17 03:13:30;;;;;;;;;;;18.30;99.90;;;;;;5050756;28;19936;-86
2022/08/17 03:15:57;;;;;;;;;;;18.30;99.90;;;;;;5049018;28;20396;-85
2022/08/17 03:18:26;;;;;;;;;;;18.30;99.90;;;;;;5032367;28;19925;-88
2022/08/17 03:20:55;;;;;;;;;;;18.20;99.90;;;;;;5051252;28;19925;-85
2022/08/17 03:23:22;;;;;;;;;;;18.20;99.90;;;;;;5038659;28;19932;-84
2022/08/17 03:25:52;;;;;;;;;;;18.10;99.90;;;;;;5035471;28;19936;-85
2022/08/17 03:28:21;;;;;;;;;;;18.10;99.90;;;;;;5035544;28;19943;-85
2022/08/17 03:30:49;;;;;;;;;;;18.00;99.90;;;;;;5040716;28;19924;-84
2022/08/17 03:33:18;;;;;;;;;;;18.00;99.90;;;;;;5024123;28;20415;-86
2022/08/17 03:35:45;;;;;;;;;;;18.00;99.90;;;;;;5051407;28;19925;-87
2022/08/17 03:38:15;;;;;;;;;;;17.80;99.90;;;;;;5054774;28;19933;-87
2022/08/17 03:40:45;;;;;;;;;;;18.00;99.90;;;;;;5033578;28;20549;-84
2022/08/17 03:43:30;;;;;;;;;;;18.00;99.90;;;;;;5050457;28;19932;-87
2022/08/17 03:57:24;;;;;;;;;;;17.80;99.90;;;;;;5052322;28;19925;-86
2022/08/17 03:59:52;;;;;;;;;;;17.80;99.90;;;;;;5016252;28;19932;-87
2022/08/17 04:02:22;;;;;;;;;;;17.80;99.90;;;;;;5048588;28;20024;-89
2022/08/17 04:04:50;;;;;;;;;;;17.80;99.90;;;;;;5050293;28;19935;-89
2022/08/17 04:07:19;;;;;;;;;;;17.80;99.90;;;;;;5032182;28;20246;-87
2022/08/17 04:09:47;;;;;;;;;;;17.90;99.90;;;;;;5011807;28;19932;-84
2022/08/17 04:12:15;;;;;;;;;;;17.90;99.90;;;;;;5024928;28;19925;-87
2022/08/17 04:14:43;;;;;;;;;;;17.80;99.90;;;;;;5050094;28;20403;-88
2022/08/17 04:17:25;;;;;;;;;;;17.80;99.90;;;;;;5050498;28;19929;-87
2022/08/17 04:19:53;;;;;;;;;;;17.50;99.90;;;;;;5051658;28;19952;-85
2022/08/17 04:22:21;;;;;;;;;;;17.70;99.90;;;;;;5055527;28;19929;-84
2022/08/17 04:25:01;;;;;;;;;;;17.70;99.90;;;;;;5038076;28;19931;-83
2022/08/17 04:27:29;;;;;;;;;;;17.70;99.90;;;;;;5054025;28;19931;-84
2022/08/17 04:29:57;;;;;;;;;;;17.70;99.90;;;;;;5035774;28;19925;-85
2022/08/17 04:32:24;;;;;;;;;;;17.70;99.90;;;;;;5053601;28;19959;-85
2022/08/17 04:35:16;;;;;;;;;;;17.70;99.90;;;;;;5035632;28;19931;-84
2022/08/17 04:37:44;;;;;;;;;;;17.70;99.90;;;;;;5019841;28;19929;-83
2022/08/17 04:43:04;;;;;;;;;;;17.80;99.90;;;;;;5041377;28;19935;-86
2022/08/17 04:45:32;;;;;;;;;;;17.80;99.90;;;;;;5041139;28;19932;-85
2022/08/17 04:47:59;;;;;;;;;;;17.80;99.90;;;;;;5035419;28;19925;-83
2022/08/17 04:50:27;;;;;;;;;;;17.80;99.90;;;;;;5042056;28;19928;-86
2022/08/17 04:52:58;;;;;;;;;;;17.80;99.90;;;;;;5049779;28;19939;-86
2022/08/17 04:55:26;;;;;;;;;;;17.80;99.90;;;;;;5017202;28;19936;-85
2022/08/17 04:57:53;;;;;;;;;;;17.80;99.90;;;;;;5051550;28;19928;-86
2022/08/17 05:00:21;;;;;;;;;;;17.80;99.90;;;;;;5050493;28;19933;-88
2022/08/17 05:02:49;;;;;;;;;;;17.70;99.90;;;;;;5054020;28;19924;-83
2022/08/17 05:05:32;;;;;;;;;;;17.70;99.90;;;;;;5062452;28;19925;-87
2022/08/17 05:08:01;;;;;;;;;;;17.70;99.90;;;;;;5041485;28;20376;-88
2022/08/17 05:10:31;;;;;;;;;;;17.60;99.90;;;;;;5042811;28;19932;-88
2022/08/17 05:13:10;;;;;;;;;;;17.60;99.90;;;;;;5017338;28;19955;-87
2022/08/17 05:15:39;;;;;;;;;;;17.60;99.90;;;;;;5044683;28;19928;-84
2022/08/17 05:18:11;;;;;;;;;;;17.60;99.90;;;;;;5049825;28;19936;-86
2022/08/17 05:20:39;;;;;;;;;;;17.50;99.90;;;;;;5040455;28;19931;-85
2022/08/17 05:23:08;;;;;;;;;;;17.50;99.90;;;;;;5056749;28;19936;-85
2022/08/17 05:25:39;;;;;;;;;;;17.50;99.90;;;;;;5067470;28;19931;-85
2022/08/17 05:28:07;;;;;;;;;;;17.70;99.90;;;;;;5061585;28;19951;-88
2022/08/17 05:30:34;;;;;;;;;;;17.50;99.90;;;;;;5053227;28;20474;-88
2022/08/17 05:33:10;;;;;;;;;;;17.50;99.90;;;;;;5040630;28;20389;-87
2022/08/17 05:35:41;;;;;;;;;;;17.50;99.90;;;;;;5040914;28;19936;-86
2022/08/17 05:38:09;;;;;;;;;;;17.60;99.90;;;;;;5032960;28;20309;-85
2022/08/17 05:40:37;;;;;;;;;;;17.50;99.90;;;;;;5049878;28;19931;-88
2022/08/17 05:43:04;;;;;;;;;;;17.60;99.90;;;;;;5026971;28;19928;-85
2022/08/17 05:45:32;;;;;;;;;;;17.60;99.90;;;;;;5043622;28;19925;-86
2022/08/17 05:48:20;;;;;;;;;;;18.40;99.90;;;;;;5039257;28;19933;-87
2022/08/17 05:51:05;;;;;;;;;;;17.70;99.90;;;;;;5044117;28;19924;-88
2022/08/17 05:53:36;;;;;;;;;;;17.70;99.90;;;;;;5030661;28;19939;-84
2022/08/17 05:56:24;;;;;;;;;;;17.70;99.90;;;;;;5026327;28;19929;-88
2022/08/17 05:59:03;;;;;;;;;;;17.80;99.90;;;;;;5054139;28;19935;-88
2022/08/17 06:01:40;;;;;;;;;;;17.80;99.90;;;;;;5051743;28;19925;-89
2022/08/17 06:04:17;;;;;;;;;;;17.90;99.90;;;;;;5016757;28;19936;-86
2022/08/17 06:06:51;;;;;;;;;;;17.90;99.90;;;;;;5051717;28;20380;-87
2022/08/17 06:09:27;;;;;;;;;;;18.00;99.90;;;;;;5040313;28;19936;-89
2022/08/17 06:12:16;;;;;;;;;;;18.00;99.90;;;;;;5040569;28;19932;-88
2022/08/17 06:14:46;;;;;;;;;;;18.10;99.90;;;;;;5039206;28;19928;-88
2022/08/17 06:17:16;;;;;;;;;;;18.10;99.90;;;;;;5003971;28;20280;-86
2022/08/17 06:19:49;;;;;;;;;;;18.20;99.90;;;;;;5035758;28;19925;-88
2022/08/17 06:22:22;;;;;;;;;;;18.30;99.90;;;;;;5049846;28;19925;-84
2022/08/17 06:24:53;;;;;;;;;;;18.40;99.90;;;;;;5037756;28;19936;-89
2022/08/17 06:27:20;;;;;;;;;;;18.50;99.90;;;;;;5024859;28;20296;-87
2022/08/17 06:29:52;;;;;;;;;;;18.60;99.90;;;;;;5031092;28;19936;-89
2022/08/17 06:32:19;;;;;;;;;;;18.60;99.90;;;;;;5046189;28;19929;-85
2022/08/17 06:34:47;;;;;;;;;;;18.60;99.90;;;;;;5064959;28;19939;-87
2022/08/17 06:37:29;;;;;;;;;;;18.70;99.90;;;;;;5047662;28;19943;-87
2022/08/17 06:40:13;;;;;;;;;;;18.80;99.90;;;;;;5060116;28;19921;-86
2022/08/17 06:42:59;;;;;;;;;;;18.80;99.90;;;;;;5063104;28;20392;-84
2022/08/17 06:45:34;;;;;;;;;;;18.80;99.90;;;;;;5035050;28;19932;-84
2022/08/17 06:48:09;;;;;;;;;;;18.90;99.90;;;;;;5059340;28;19932;-87
2022/08/17 06:50:39;;;;;;;;;;;19.00;99.90;;;;;;5020265;28;19925;-88
2022/08/17 06:53:09;;;;;;;;;;;19.10;99.90;;;;;;5035177;28;20411;-83
2022/08/17 06:55:49;;;;;;;;;;;19.20;99.90;;;;;;5036505;28;19929;-86
2022/08/17 06:58:21;;;;;;;;;;;19.30;99.90;;;;;;5003920;28;19925;-83
2022/08/17 07:00:50;;;;;;;;;;;19.40;99.90;;;;;;5028730;28;19945;-86
2022/08/17 07:03:36;;;;;;;;;;;19.60;99.90;;;;;;5017762;28;19930;-86
2022/08/17 07:06:10;;;;;;;;;;;19.70;99.90;;;;;;5031438;28;19939;-86
2022/08/17 07:09:13;;;;;;;;;;;19.80;99.90;;;;;;5003912;28;19936;-86
2022/08/17 07:11:49;;;;;;;;;;;19.90;99.90;;;;;;4967783;28;19930;-86
2022/08/17 07:14:17;;;;;;;;;;;19.90;99.90;;;;;;5020918;28;19924;-86
2022/08/17 07:16:46;;;;;;;;;;;20.00;99.90;;;;;;5052953;28;19942;-86
2022/08/17 07:19:15;;;;;;;;;;;20.10;99.90;;;;;;5033940;28;19925;-85
2022/08/17 07:21:48;;;;;;;;;;;20.10;99.90;;;;;;5049458;28;19936;-88
2022/08/17 07:24:25;;;;;;;;;;;20.20;99.90;;;;;;5013185;28;19932;-83
2022/08/17 07:27:20;;;;;;;;;;;20.20;99.90;;;;;;5016554;28;19936;-83
2022/08/17 07:30:05;;;;;;;;;;;20.20;99.90;;;;;;5014436;28;19928;-88
2022/08/17 07:32:46;;;;;;;;;;;20.20;99.90;;;;;;5048077;28;19959;-86
2022/08/17 07:35:15;;;;;;;;;;;20.30;99.90;;;;;;5050181;28;19929;-86
2022/08/17 07:37:54;;;;;;;;;;;20.30;99.90;;;;;;5032267;28;19929;-85
2022/08/17 07:40:25;;;;;;;;;;;20.40;99.90;;;;;;5029698;28;20324;-86
2022/08/17 07:43:03;;;;;;;;;;;20.40;99.90;;;;;;5033818;28;19940;-83
2022/08/17 07:48:20;;;;;;;;;;;20.50;99.90;;;;;;5035218;28;19956;-88
2022/08/17 07:50:48;;;;;;;;;;;20.50;99.90;;;;;;5052680;28;19929;-87
2022/08/17 07:53:18;;;;;;;;;;;20.50;99.90;;;;;;5034732;28;19919;-87
2022/08/17 07:55:45;;;;;;;;;;;20.50;99.90;;;;;;5031704;28;19936;-91
2022/08/17 07:58:17;;;;;;;;;;;20.60;99.90;;;;;;5015995;28;19929;-89
2022/08/17 08:00:44;;;;;;;;;;;20.60;99.90;;;;;;5016566;28;20000;-88
2022/08/17 08:03:15;;;;;;;;;;;20.60;99.90;;;;;;5018195;28;19951;-90
2022/08/17 08:05:55;;;;;;;;;;;20.70;99.90;;;;;;5048476;28;19929;-88
2022/08/17 08:08:22;;;;;;;;;;;20.70;99.90;;;;;;5033926;28;19925;-86
2022/08/17 08:10:58;;;;;;;;;;;20.70;99.90;;;;;;5018400;28;19928;-88
2022/08/17 08:13:29;;;;;;;;;;;20.70;99.90;;;;;;5052159;28;19929;-88
2022/08/17 08:16:18;;;;;;;;;;;20.60;99.90;;;;;;5023091;28;20376;-89
2022/08/17 08:18:51;;;;;;;;;;;20.60;99.90;;;;;;5052227;28;19929;-87
2022/08/17 08:21:31;;;;;;;;;;;20.60;99.90;;;;;;5057098;28;19924;-88
2022/08/17 08:24:02;;;;;;;;;;;20.60;99.90;;;;;;5035207;28;19925;-86
2022/08/17 08:26:36;;;;;;;;;;;20.50;99.90;;;;;;5043439;28;19936;-89
2022/08/17 08:29:09;;;;;;;;;;;20.60;99.90;;;;;;5051445;28;19929;-88
2022/08/17 08:31:56;;;;;;;;;;;20.50;99.90;;;;;;5056539;28;19940;-88
2022/08/17 08:34:36;;;;;;;;;;;20.60;99.90;;;;;;5035512;28;19935;-90
2022/08/17 08:37:32;;;;;;;;;;;20.60;99.90;;;;;;5050869;28;19924;-87
2022/08/17 08:40:14;;;;;;;;;;;20.60;99.90;;;;;;5018176;28;19929;-88
2022/08/17 08:42:42;;;;;;;;;;;20.70;99.90;;;;;;5038831;28;19932;-90
2022/08/17 08:45:29;;;;;;;;;;;20.80;99.90;;;;;;5038677;28;20371;-87
2022/08/17 08:47:56;;;;;;;;;;;21.30;99.90;;;;;;5061749;28;19913;-89
2022/08/17 08:50:31;;;;;;;;;;;21.10;99.90;;;;;;5042498;28;20003;-88
2022/08/17 08:53:13;;;;;;;;;;;21.20;99.90;;;;;;5014034;28;19947;-82
2022/08/17 08:55:52;;;;;;;;;;;21.40;99.90;;;;;;5036570;28;20008;-86
2022/08/17 08:58:39;;;;;;;;;;;21.60;99.90;;;;;;5028801;28;19929;-86
2022/08/17 09:01:29;;;;;;;;;;;21.70;99.90;;;;;;5042348;28;19939;-86
2022/08/17 09:04:12;;;;;;;;;;;21.90;99.90;;;;;;5044509;28;19925;-84
2022/08/17 09:07:01;;;;;;;;;;;22.00;99.90;;;;;;5045138;28;19929;-84
2022/08/17 09:09:41;;;;;;;;;;;22.00;99.90;;;;;;5058178;28;19912;-84
2022/08/17 09:12:46;;;;;;;;;;;22.10;99.90;;;;;;5059132;28;19932;-85
2022/08/17 09:15:17;;;;;;;;;;;22.10;99.90;;;;;;5042268;28;19928;-88
2022/08/17 09:17:54;;;;;;;;;;;22.20;99.90;;;;;;5059814;28;19952;-87
2022/08/17 09:20:48;;;;;;;;;;;22.20;99.90;;;;;;5062424;28;19950;-83
2022/08/17 09:23:31;;;;;;;;;;;22.30;99.90;;;;;;5064802;28;19932;-82
2022/08/17 09:26:21;;;;;;;;;;;22.40;99.90;;;;;;5053660;28;19929;-87
2022/08/17 09:28:51;;;;;;;;;;;22.50;99.90;;;;;;5018925;28;19929;-86
2022/08/17 09:31:23;;;;;;;;;;;22.60;99.90;;;;;;5025227;28;20423;-87
2022/08/17 09:33:57;;;;;;;;;;;22.60;99.90;;;;;;5008764;28;19945;-88
2022/08/17 09:36:33;;;;;;;;;;;22.70;99.90;;;;;;5029597;28;20190;-89
2022/08/17 09:39:06;;;;;;;;;;;22.70;99.90;;;;;;5044727;28;19925;-87
2022/08/17 09:41:35;;;;;;;;;;;22.80;99.90;;;;;;5031848;28;19925;-87
2022/08/17 09:44:11;;;;;;;;;;;22.90;99.90;;;;;;5040549;28;19925;-87
2022/08/17 09:46:55;;;;;;;;;;;23.00;99.90;;;;;;5013907;28;19939;-89
2022/08/17 09:49:39;;;;;;;;;;;23.10;99.90;;;;;;5044133;28;20328;-89
2022/08/17 09:52:23;;;;;;;;;;;23.30;98.90;;;;;;5028311;28;20304;-88
2022/08/17 09:54:52;;;;;;;;;;;23.50;98.30;;;;;;5046271;28;19932;-87
2022/08/17 09:57:29;;;;;;;;;;;23.70;98.50;;;;;;5029814;28;19932;-90
2022/08/17 10:00:11;;;;;;;;;;;23.80;97.50;;;;;;5040368;28;19943;-88
2022/08/17 10:02:50;;;;;;;;;;;23.90;98.10;;;;;;5024299;28;19936;-90
2022/08/17 10:05:20;;;;;;;;;;;24.00;97.40;;;;;;5035023;28;19944;-90
2022/08/17 10:07:54;;;;;;;;;;;24.00;96.40;;;;;;5030046;28;19924;-88
2022/08/17 10:10:24;;;;;;;;;;;24.00;96.20;;;;;;5044657;28;20182;-89
2022/08/17 10:13:03;;;;;;;;;;;24.00;96.70;;;;;;5043650;28;19929;-89
2022/08/17 10:15:47;;;;;;;;;;;24.10;96.40;;;;;;5029108;28;19932;-88
2022/08/17 10:18:41;;;;;;;;;;;24.10;96.00;;;;;;5012049;28;19928;-86
2022/08/17 10:27:01;;;;;;;;;;;24.20;96.30;;;;;;5044584;28;19925;-90
2022/08/17 10:29:45;;;;;;;;;;;24.30;96.20;;;;;;5044766;28;19948;-89
2022/08/17 10:32:25;;;;;;;;;;;24.50;96.50;;;;;;5029058;28;19933;-87
2022/08/17 10:35:13;;;;;;;;;;;24.60;95.80;;;;;;5042113;28;19929;-90
2022/08/17 10:38:00;;;;;;;;;;;24.80;95.80;;;;;;5046004;28;19931;-92
2022/08/17 10:40:31;;;;;;;;;;;24.80;95.60;;;;;;5026137;28;20403;-89
2022/08/17 10:43:02;;;;;;;;;;;24.80;94.60;;;;;;5048034;28;19932;-87
2022/08/17 10:45:43;;;;;;;;;;;24.80;95.40;;;;;;5045334;28;19932;-84
2022/08/17 10:48:15;;;;;;;;;;;24.90;95.40;;;;;;5048028;28;19933;-87
2022/08/17 10:50:48;;;;;;;;;;;25.00;94.90;;;;;;5032898;28;19935;-88
2022/08/17 10:53:31;;;;;;;;;;;25.10;94.90;;;;;;5027214;28;19929;-86
2022/08/17 10:56:10;;;;;;;;;;;25.20;94.20;;;;;;5030168;28;19933;-87
2022/08/17 10:58:45;;;;;;;;;;;25.40;94.50;;;;;;5030951;28;19932;-89
2022/08/17 11:01:13;;;;;;;;;;;25.60;94.20;;;;;;5023816;28;20396;-89
2022/08/17 11:03:53;;;;;;;;;;;25.80;94.10;;;;;;5041146;28;19925;-89
2022/08/17 11:06:40;;;;;;;;;;;26.00;93.60;;;;;;5014578;28;19940;-91
2022/08/17 11:09:26;;;;;;;;;;;26.10;93.00;;;;;;5037698;28;20289;-91
2022/08/17 11:12:05;;;;;;;;;;;26.30;93.00;;;;;;5035187;28;19933;-88
2022/08/17 11:14:52;;;;;;;;;;;26.20;92.80;;;;;;5046185;28;19933;-90
2022/08/17 11:17:30;;;;;;;;;;;26.20;92.90;;;;;;5042491;28;19945;-87
2022/08/17 11:20:07;;;;;;;;;;;26.30;92.80;;;;;;5018196;28;19936;-93
2022/08/17 11:22:37;;;;;;;;;;;26.40;92.30;;;;;;5012792;28;19936;-92
2022/08/17 11:25:13;;;;;;;;;;;26.60;92.20;;;;;;5028969;28;19925;-93
2022/08/17 11:27:41;;;;;;;;;;;26.60;92.00;;;;;;5030981;28;19928;-90
2022/08/17 11:30:35;;;;;;;;;;;26.50;91.80;;;;;;5030497;28;19929;-89
2022/08/17 11:33:23;;;;;;;;;;;26.50;91.40;;;;;;5047555;28;19933;-90
2022/08/17 11:35:54;;;;;;;;;;;26.50;91.50;;;;;;5031374;28;19936;-91
2022/08/17 11:38:31;;;;;;;;;;;26.40;91.50;;;;;;5010833;28;19944;-90
2022/08/17 11:41:18;;;;;;;;;;;26.40;91.50;;;;;;5012489;28;19932;-90
2022/08/17 11:43:51;;;;;;;;;;;26.20;91.20;;;;;;5029136;28;19933;-86
2022/08/17 11:52:33;;;;;;;;;;;26.00;91.60;;;;;;4996897;28;20222;-85
2022/08/17 11:55:01;;;;;;;;;;;25.90;91.30;;;;;;5030556;28;19939;-88
2022/08/17 11:57:54;;;;;;;;;;;25.80;91.50;;;;;;5018048;28;19933;-86
2022/08/17 12:00:40;;;;;;;;;;;25.70;91.40;;;;;;5030294;28;19952;-89
2022/08/17 12:03:23;;;;;;;;;;;25.70;91.60;;;;;;5031008;28;19944;-92
2022/08/17 12:06:01;;;;;;;;;;;25.60;91.70;;;;;;5030816;28;19948;-89
2022/08/17 12:08:31;;;;;;;;;;;25.60;91.80;;;;;;5017173;28;19936;-85
2022/08/17 12:11:02;;;;;;;;;;;25.60;91.80;;;;;;5016425;28;19935;-86
2022/08/17 12:13:31;;;;;;;;;;;25.60;92.00;;;;;;5032787;28;20451;-88
2022/08/17 12:16:07;;;;;;;;;;;25.70;91.90;;;;;;5049392;28;20341;-85
2022/08/17 12:18:36;;;;;;;;;;;25.60;92.20;;;;;;5038943;28;20744;-91
2022/08/17 12:21:12;;;;;;;;;;;25.90;92.20;;;;;;5038647;28;19929;-91
2022/08/17 12:23:50;;;;;;;;;;;25.90;92.20;;;;;;5046586;28;19929;-85
2022/08/17 12:26:21;;;;;;;;;;;26.00;92.00;;;;;;5027999;28;19932;-87
2022/08/17 12:28:54;;;;;;;;;;;25.50;92.00;;;;;;5022516;28;19976;-90
2022/08/17 12:31:25;;;;;;;;;;;26.10;92.50;;;;;;5039748;28;19944;-89
2022/08/17 12:33:54;;;;;;;;;;;26.00;92.70;;;;;;5025337;28;19932;-85
2022/08/17 12:36:23;;;;;;;;;;;25.70;92.60;;;;;;5026363;28;19925;-88
2022/08/17 12:38:56;;;;;;;;;;;25.90;92.40;;;;;;5009427;28;20380;-91
2022/08/17 12:41:30;;;;;;;;;;;25.90;92.30;;;;;;5026786;28;19929;-91
2022/08/17 12:44:04;;;;;;;;;;;25.90;92.40;;;;;;5017177;28;19933;-86
2022/08/17 12:46:46;;;;;;;;;;;25.90;92.20;;;;;;5045974;28;19925;-86
2022/08/17 12:49:29;;;;;;;;;;;25.80;92.40;;;;;;5032220;28;19933;-92
2022/08/17 12:52:19;;;;;;;;;;;25.80;92.60;;;;;;5051105;28;19929;-91
2022/08/17 12:55:13;;;;;;;;;;;25.80;92.40;;;;;;5050448;28;19931;-90
2022/08/17 12:57:44;;;;;;;;;;;25.80;92.70;;;;;;5070102;28;19913;-86
2022/08/17 13:00:27;;;;;;;;;;;25.60;93.50;;;;;;5023622;28;19924;-90
2022/08/17 13:02:58;;;;;;;;;;;25.40;93.60;;;;;;5024036;28;19933;-90
2022/08/17 13:05:34;;;;;;;;;;;25.20;93.90;;;;;;5038412;28;19932;-91
2022/08/17 13:08:11;;;;;;;;;;;25.00;94.60;;;;;;5039382;28;20439;-92
2022/08/17 13:10:39;;;;;;;;;;;24.80;94.90;;;;;;5036090;28;19931;-90
2022/08/17 13:13:19;;;;;;;;;;;24.70;95.10;;;;;;5032786;28;19932;-90
2022/08/17 13:15:52;;;;;;;;;;;24.50;95.40;;;;;;5049109;28;19925;-90
2022/08/17 13:18:40;;;;;;;;;;;24.30;95.70;;;;;;5040976;28;19929;-89
2022/08/17 13:21:11;;;;;;;;;;;24.20;95.80;;;;;;5030481;28;19933;-87
2022/08/17 13:23:38;;;;;;;;;;;24.20;96.20;;;;;;5033676;28;19933;-86
2022/08/17 13:26:26;;;;;;;;;;;24.20;96.40;;;;;;5017364;28;19925;-92
2022/08/17 13:28:55;;;;;;;;;;;24.20;96.40;;;;;;5022797;28;19931;-87
2022/08/17 13:31:31;;;;;;;;;;;24.20;96.20;;;;;;5026849;28;19939;-90
2022/08/17 13:34:25;;;;;;;;;;;24.10;96.40;;;;;;5033651;28;19932;-91
2022/08/17 13:37:13;;;;;;;;;;;24.30;96.20;;;;;;5022842;28;19940;-84
2022/08/17 13:39:41;;;;;;;;;;;24.40;96.20;;;;;;5011880;28;20388;-87
2022/08/17 13:42:47;;;;;;;;;;;24.50;96.10;;;;;;5023802;28;19933;-85
2022/08/17 13:45:26;;;;;;;;;;;24.60;96.10;;;;;;4932919;29;20386;-86
2022/08/17 13:48:05;;;;;;;;;;;24.60;95.60;;;;;;4932793;29;19927;-89
2022/08/17 13:50:52;;;;;;;;;;;24.60;95.00;;;;;;4998305;28;19925;-84
2022/08/17 13:53:28;;;;;;;;;;;24.60;94.40;;;;;;5041028;28;19925;-86
2022/08/17 13:55:59;;;;;;;;;;;24.70;94.80;;;;;;5028808;28;19929;-86
2022/08/17 13:58:29;;;;;;;;;;;24.70;94.50;;;;;;5041017;28;19936;-87
2022/08/17 14:00:57;;;;;;;;;;;24.80;94.40;;;;;;5048791;28;19936;-88
2022/08/17 14:03:24;;;;;;;;;;;24.80;94.60;;;;;;5031417;28;20009;-87
2022/08/17 14:05:52;;;;;;;;;;;24.80;94.50;;;;;;5014726;28;19925;-87
2022/08/17 14:08:19;;;;;;;;;;;24.90;94.20;;;;;;5032058;28;19925;-88
2022/08/17 14:10:55;;;;;;;;;;;25.00;94.20;;;;;;5033361;28;19932;-87
2022/08/17 14:13:22;;;;;;;;;;;25.00;94.50;;;;;;5014325;28;20420;-90
2022/08/17 14:15:50;;;;;;;;;;;25.00;93.60;;;;;;5030674;28;19925;-89
2022/08/17 14:18:23;;;;;;;;;;;25.00;93.20;;;;;;5044121;28;19925;-88
2022/08/17 14:21:15;;;;;;;;;;;25.00;93.20;;;;;;5037498;28;19925;-88
2022/08/17 14:23:43;;;;;;;;;;;25.00;93.60;;;;;;5001387;28;19948;-89
2022/08/17 14:26:21;;;;;;;;;;;25.00;93.30;;;;;;5029815;28;21425;-88
2022/08/17 14:28:49;;;;;;;;;;;25.00;93.50;;;;;;5033495;28;19936;-88
2022/08/17 14:31:23;;;;;;;;;;;25.00;93.40;;;;;;5024736;28;19932;-88
2022/08/17 14:33:51;;;;;;;;;;;24.90;92.90;;;;;;5007054;28;19933;-86
2022/08/17 14:36:26;;;;;;;;;;;24.90;92.90;;;;;;5032690;28;20296;-86
2022/08/17 14:39:15;;;;;;;;;;;24.50;92.90;;;;;;5031141;28;19933;-84
2022/08/17 14:41:47;;;;;;;;;;;25.30;93.50;;;;;;5011163;28;20731;-84
2022/08/17 14:44:29;;;;;;;;;;;25.90;93.80;;;;;;5029689;28;19932;-88
2022/08/17 14:46:57;;;;;;;;;;;24.80;92.90;;;;;;5047682;28;19932;-84
2022/08/17 14:49:25;;;;;;;;;;;24.80;93.90;;;;;;5032092;28;19925;-86
2022/08/17 14:52:01;;;;;;;;;;;24.80;93.30;;;;;;5049489;28;19936;-89
2022/08/17 14:54:29;;;;;;;;;;;24.70;93.60;;;;;;5029598;28;20561;-91
2022/08/17 14:57:04;;;;;;;;;;;24.70;93.40;;;;;;5015582;28;19925;-88
2022/08/17 14:59:55;;;;;;;;;;;24.20;94.30;;;;;;5029424;28;19933;-88
2022/08/17 15:02:27;;;;;;;;;;;24.70;93.60;;;;;;5028749;28;19924;-85
2022/08/17 15:04:58;;;;;;;;;;;24.80;93.00;;;;;;5047253;28;20246;-89
2022/08/17 15:07:26;;;;;;;;;;;24.80;93.00;;;;;;5013759;28;20167;-87
2022/08/17 15:09:59;;;;;;;;;;;24.80;93.00;;;;;;5032805;28;19924;-87
2022/08/17 15:12:29;;;;;;;;;;;24.80;93.00;;;;;;5035744;28;20113;-89
2022/08/17 15:15:01;;;;;;;;;;;24.80;93.00;;;;;;5040313;28;19924;-86
2022/08/17 15:17:34;;;;;;;;;;;24.80;93.00;;;;;;5023525;28;19933;-90
2022/08/17 15:20:23;;;;;;;;;;;24.70;93.00;;;;;;5024097;28;19932;-89
2022/08/17 15:22:54;;;;;;;;;;;24.60;93.30;;;;;;5038896;28;19932;-88
2022/08/17 15:25:23;;;;;;;;;;;24.60;93.50;;;;;;5021144;28;20403;-86